createdAt,value
2019-05-03T00:00:09.120Z,1.90
2019-05-03T00:03:01.613Z,1.90
2019-05-03T00:05:43.118Z,1.77
2019-05-03T00:08:12.683Z,1.83
2019-05-03T00:10:42.511Z,1.87
2019-05-03T00:13:12.503Z,2.00
2019-05-03T00:16:05.969Z,1.80
2019-05-03T00:18:34.068Z,1.83
2019-05-03T00:21:02.186Z,1.70
2019-05-03T00:23:32.388Z,1.60
2019-05-03T00:26:02.547Z,1.90
2019-05-03T00:28:32.186Z,1.90
2019-05-03T00:31:01.975Z,1.90
2019-05-03T00:33:31.774Z,1.80
2019-05-03T00:36:37.094Z,2.10
2019-05-03T00:39:18.683Z,1.97
2019-05-03T00:41:49.636Z,2.10
2019-05-03T00:44:17.073Z,1.70
2019-05-03T00:46:45.425Z,2.10
2019-05-03T00:49:13.424Z,1.90
2019-05-03T00:51:42.390Z,2.07
2019-05-03T00:54:12.627Z,1.90
2019-05-03T00:56:43.998Z,2.00
2019-05-03T00:59:12.327Z,2.00
2019-05-03T01:01:42.409Z,2.10
2019-05-03T01:04:11.823Z,1.90
2019-05-03T01:06:40.113Z,2.00
2019-05-03T01:09:15.500Z,2.03
2019-05-03T01:11:43.851Z,2.17
2019-05-03T01:14:12.432Z,2.47
2019-05-03T01:16:42.687Z,2.00
2019-05-03T01:19:12.093Z,2.20
2019-05-03T01:21:42.179Z,2.00
2019-05-03T01:24:12.176Z,2.00
2019-05-03T01:26:41.964Z,1.90
2019-05-03T01:29:11.692Z,2.10
2019-05-03T01:31:39.860Z,2.10
2019-05-03T01:34:07.769Z,2.47
2019-05-03T01:36:35.894Z,2.30
2019-05-03T01:39:05.253Z,2.30
2019-05-03T01:41:33.637Z,2.03
2019-05-03T01:44:01.982Z,2.23
2019-05-03T01:46:31.604Z,2.47
2019-05-03T01:49:23.232Z,2.07
2019-05-03T01:52:21.797Z,2.20
2019-05-03T01:54:52.000Z,2.30
2019-05-03T01:57:21.938Z,2.17
2019-05-03T01:59:51.958Z,2.23
2019-05-03T02:02:35.734Z,2.37
2019-05-03T02:05:20.336Z,2.27
2019-05-03T02:07:48.923Z,2.30
2019-05-03T02:10:17.311Z,2.60
2019-05-03T02:12:45.946Z,2.83
2019-05-03T02:15:14.117Z,2.90
2019-05-03T02:17:42.788Z,2.90
2019-05-03T02:20:12.630Z,3.00
2019-05-03T02:22:42.754Z,3.10
2019-05-03T02:25:12.353Z,2.93
2019-05-03T02:27:42.206Z,3.00
2019-05-03T02:30:14.150Z,3.00
2019-05-03T02:32:44.050Z,2.60
2019-05-03T02:35:14.047Z,2.90
2019-05-03T02:37:43.839Z,2.60
2019-05-03T02:40:13.337Z,2.60
2019-05-03T02:42:46.382Z,2.83
2019-05-03T02:45:21.228Z,2.93
2019-05-03T02:48:06.154Z,2.60
2019-05-03T02:50:36.067Z,2.77
2019-05-03T02:53:05.781Z,3.00
2019-05-03T02:55:36.293Z,2.67
2019-05-03T02:58:05.722Z,2.50
2019-05-03T03:00:58.019Z,2.70
2019-05-03T03:03:27.027Z,2.97
2019-05-03T03:05:56.551Z,2.70
2019-05-03T03:08:26.673Z,2.63
2019-05-03T03:11:02.945Z,2.97
2019-05-03T03:13:32.106Z,3.00
2019-05-03T03:16:06.615Z,2.67
2019-05-03T03:18:36.625Z,3.07
2019-05-03T03:21:07.377Z,3.33
2019-05-03T03:23:45.916Z,3.53
2019-05-03T03:26:32.911Z,3.30
2019-05-03T03:28:51.036Z,3.00
2019-05-03T03:32:00.565Z,2.97
2019-05-03T03:34:38.103Z,3.40
2019-05-03T03:37:06.400Z,3.07
2019-05-03T03:39:36.022Z,3.43
2019-05-03T03:42:05.318Z,3.60
2019-05-03T03:44:36.288Z,3.27
2019-05-03T03:47:05.324Z,3.37
2019-05-03T03:49:35.764Z,3.30
2019-05-03T03:52:06.161Z,3.27
2019-05-03T03:54:35.718Z,3.60
2019-05-03T03:57:07.931Z,3.50
2019-05-03T03:59:36.438Z,3.50
2019-05-03T04:02:06.005Z,3.13
2019-05-03T04:04:35.839Z,3.50
2019-05-03T04:07:06.597Z,3.40
2019-05-03T04:09:36.425Z,3.40
2019-05-03T04:12:06.002Z,3.50
2019-05-03T04:14:56.022Z,3.53
2019-05-03T04:17:58.499Z,3.50
2019-05-03T04:20:29.044Z,3.50
2019-05-03T04:22:57.757Z,3.60
2019-05-03T04:25:26.369Z,3.80
2019-05-03T04:27:56.058Z,3.60
2019-05-03T04:30:25.698Z,3.20
2019-05-03T04:32:56.529Z,3.53
2019-05-03T04:35:26.609Z,3.70
2019-05-03T04:37:55.843Z,3.80
2019-05-03T04:40:25.971Z,4.20
2019-05-03T04:42:55.588Z,3.63
2019-05-03T04:45:25.498Z,3.60
2019-05-03T04:47:55.999Z,3.67
2019-05-03T04:50:25.452Z,3.70
2019-05-03T04:52:56.366Z,4.10
2019-05-03T04:55:26.302Z,3.70
2019-05-03T04:57:55.910Z,3.83
2019-05-03T05:00:25.642Z,3.80
2019-05-03T05:02:55.135Z,4.10
2019-05-03T05:05:22.677Z,3.53
2019-05-03T05:07:50.561Z,4.00
2019-05-03T05:10:18.587Z,3.87
2019-05-03T05:12:46.747Z,3.23
2019-05-03T05:15:15.784Z,3.63
2019-05-03T05:17:50.524Z,3.57
2019-05-03T05:20:26.007Z,3.60
2019-05-03T05:22:54.396Z,3.70
2019-05-03T05:25:25.151Z,3.70
2019-05-03T05:28:25.022Z,4.13
2019-05-03T05:30:54.623Z,3.70
2019-05-03T05:33:22.654Z,3.70
2019-05-03T05:35:51.282Z,3.90
2019-05-03T05:38:19.466Z,3.33
2019-05-03T05:40:47.539Z,3.43
2019-05-03T05:43:15.535Z,4.03
2019-05-03T05:45:44.915Z,3.37
2019-05-03T05:48:16.402Z,3.93
2019-05-03T05:50:44.986Z,4.00
2019-05-03T05:53:15.123Z,3.80
2019-05-03T05:56:00.942Z,3.77
2019-05-03T05:58:35.180Z,3.90
2019-05-03T06:01:10.845Z,4.13
2019-05-03T06:03:38.925Z,4.40
2019-05-03T06:06:09.082Z,4.80
2019-05-03T06:08:48.249Z,5.40
2019-05-03T06:11:55.272Z,5.03
2019-05-03T06:14:34.801Z,4.70
2019-05-03T06:17:08.417Z,4.53
2019-05-03T06:19:58.723Z,3.90
2019-05-03T06:22:40.024Z,4.10
2019-05-03T06:25:17.708Z,3.20
2019-05-03T06:27:45.801Z,2.83
2019-05-03T06:30:30.469Z,2.67
2019-05-03T06:32:58.415Z,3.07
2019-05-03T06:35:26.412Z,3.03
2019-05-03T06:37:54.621Z,3.23
2019-05-03T06:40:22.621Z,2.97
2019-05-03T06:42:54.569Z,3.50
2019-05-03T06:45:21.177Z,3.00
2019-05-03T06:47:50.035Z,2.70
2019-05-03T06:50:19.515Z,2.50
2019-05-03T06:52:48.013Z,2.70
2019-05-03T06:55:16.118Z,3.00
2019-05-03T06:57:49.523Z,2.83
2019-05-03T07:00:28.218Z,2.70
2019-05-03T07:03:01.571Z,2.70
2019-05-03T07:05:37.135Z,3.20
2019-05-03T07:08:25.339Z,2.80
2019-05-03T07:11:01.288Z,2.97
2019-05-03T07:13:29.235Z,3.23
2019-05-03T07:15:57.196Z,2.80
2019-05-03T07:18:25.111Z,2.53
2019-05-03T07:20:57.067Z,2.77
2019-05-03T07:23:25.152Z,2.93
2019-05-03T07:25:55.036Z,3.50
2019-05-03T07:28:24.710Z,2.90
2019-05-03T07:30:54.437Z,2.80
2019-05-03T07:33:28.710Z,3.47
2019-05-03T07:35:56.728Z,3.20
2019-05-03T07:38:24.999Z,3.27
2019-05-03T07:40:54.835Z,2.93
2019-05-03T07:43:24.439Z,2.83
2019-05-03T07:45:52.463Z,3.23
2019-05-03T07:48:20.778Z,3.27
2019-05-03T07:50:48.756Z,3.20
2019-05-03T07:53:16.784Z,2.63
2019-05-03T07:56:02.151Z,3.67
2019-05-03T07:58:29.997Z,3.20
2019-05-03T08:01:06.047Z,3.67
2019-05-03T08:03:29.084Z,3.30
2019-05-03T08:05:57.224Z,3.07
2019-05-03T08:08:25.324Z,3.97
2019-05-03T08:11:01.036Z,4.10
2019-05-03T08:13:28.999Z,4.20
2019-05-03T08:15:56.852Z,4.70
2019-05-03T08:18:25.659Z,4.93
2019-05-03T08:20:55.661Z,5.97
2019-05-03T08:23:29.697Z,6.50
2019-05-03T08:25:55.469Z,5.90
2019-05-03T08:28:24.588Z,6.30
2019-05-03T08:31:11.164Z,5.80
2019-05-03T08:33:58.516Z,4.50
2019-05-03T08:36:26.684Z,4.03
2019-05-03T08:38:56.350Z,4.27
2019-05-03T08:41:26.309Z,3.97
2019-05-03T08:43:54.975Z,3.73
2019-05-03T08:46:25.174Z,3.50
2019-05-03T08:48:54.659Z,3.50
2019-05-03T08:51:24.817Z,3.47
2019-05-03T08:53:52.364Z,3.53
2019-05-03T08:56:20.393Z,3.33
2019-05-03T08:58:48.460Z,3.17
2019-05-03T09:01:16.476Z,3.20
2019-05-03T09:03:45.793Z,3.80
2019-05-03T09:06:15.483Z,3.77
2019-05-03T09:08:45.638Z,3.63
2019-05-03T09:11:15.542Z,3.50
2019-05-03T09:14:06.382Z,3.77
2019-05-03T09:16:35.555Z,3.83
2019-05-03T09:19:05.392Z,3.80
2019-05-03T09:21:34.768Z,3.87
2019-05-03T09:24:04.571Z,3.67
2019-05-03T09:26:34.683Z,3.60
2019-05-03T09:29:02.707Z,3.60
2019-05-03T09:31:30.833Z,3.40
2019-05-03T09:33:58.853Z,3.13
2019-05-03T09:36:26.887Z,2.97
2019-05-03T09:38:55.098Z,2.80
2019-05-03T09:41:25.341Z,3.07
2019-05-03T09:43:52.908Z,3.30
2019-05-03T09:46:23.301Z,3.80
2019-05-03T09:48:50.831Z,3.40
2019-05-03T09:51:18.764Z,3.40
2019-05-03T09:53:55.521Z,3.40
2019-05-03T09:56:48.013Z,3.43
2019-05-03T09:59:11.416Z,3.17
2019-05-03T10:01:39.429Z,3.63
2019-05-03T10:04:07.354Z,3.20
2019-05-03T10:06:35.930Z,3.13
2019-05-03T10:09:05.372Z,3.37
2019-05-03T10:11:35.126Z,3.07
2019-05-03T10:14:22.953Z,3.13
2019-05-03T10:17:19.187Z,3.30
2019-05-03T10:19:47.373Z,3.10
2019-05-03T10:22:17.086Z,3.33
2019-05-03T10:24:45.337Z,3.23
2019-05-03T10:27:15.121Z,3.57
2019-05-03T10:30:12.377Z,3.40
2019-05-03T10:32:40.487Z,3.40
2019-05-03T10:35:10.751Z,3.60
2019-05-03T10:37:38.606Z,4.50
2019-05-03T10:40:08.191Z,4.63
2019-05-03T10:42:36.431Z,4.77
2019-05-03T10:45:05.144Z,6.33
2019-05-03T10:47:34.943Z,6.30
2019-05-03T10:50:04.683Z,5.03
2019-05-03T10:52:38.345Z,4.43
2019-05-03T10:55:06.670Z,3.83
2019-05-03T10:57:37.057Z,3.90
2019-05-03T11:00:06.338Z,3.93
2019-05-03T11:02:51.586Z,7.97
2019-05-03T11:05:19.561Z,8.93
2019-05-03T11:07:47.942Z,7.00
2019-05-03T11:10:16.146Z,5.57
2019-05-03T11:12:44.088Z,5.10
2019-05-03T11:15:29.449Z,4.43
2019-05-03T11:17:57.403Z,4.73
2019-05-03T11:20:35.604Z,4.03
2019-05-03T11:23:05.908Z,4.67
2019-05-03T11:25:34.546Z,4.57
2019-05-03T11:28:06.457Z,2.67
2019-05-03T11:30:35.571Z,2.40
2019-05-03T11:33:07.685Z,2.33
2019-05-03T11:35:55.314Z,2.30
2019-05-03T11:38:25.605Z,2.73
2019-05-03T11:40:55.816Z,2.60
2019-05-03T11:43:24.699Z,2.60
2019-05-03T11:45:52.892Z,2.73
2019-05-03T11:48:20.838Z,4.70
2019-05-03T11:50:48.981Z,4.67
2019-05-03T11:53:17.083Z,3.30
2019-05-03T11:55:46.448Z,4.00
2019-05-03T11:58:18.418Z,5.10
2019-05-03T12:00:48.004Z,5.03
2019-05-03T12:03:20.223Z,4.97
2019-05-03T12:05:50.831Z,3.73
2019-05-03T12:08:18.861Z,3.20
2019-05-03T12:10:56.952Z,3.00
2019-05-03T12:13:28.206Z,3.10
2019-05-03T12:15:56.204Z,3.53
2019-05-03T12:18:25.108Z,5.10
2019-05-03T12:20:56.340Z,3.87
2019-05-03T12:23:25.768Z,3.17
2019-05-03T12:25:53.809Z,2.60
2019-05-03T12:28:22.235Z,2.63
2019-05-03T12:30:50.249Z,2.53
2019-05-03T12:33:18.324Z,3.03
2019-05-03T12:35:46.428Z,3.30
2019-05-03T12:38:16.481Z,2.97
2019-05-03T12:40:45.551Z,2.57
2019-05-03T12:43:14.969Z,3.10
2019-05-03T12:45:43.368Z,2.60
2019-05-03T12:48:11.453Z,2.33
2019-05-03T12:50:39.703Z,3.00
2019-05-03T12:53:08.089Z,2.87
2019-05-03T12:55:36.034Z,3.13
2019-05-03T12:58:06.403Z,2.27
2019-05-03T13:01:11.178Z,2.90
2019-05-03T13:04:07.376Z,4.43
2019-05-03T13:06:38.871Z,3.80
2019-05-03T13:09:06.989Z,2.90
2019-05-03T13:11:36.739Z,2.70
2019-05-03T13:14:36.028Z,2.40
2019-05-03T13:17:04.762Z,2.37
2019-05-03T13:19:34.804Z,2.33
2019-05-03T13:22:02.835Z,2.80
2019-05-03T13:24:30.767Z,2.83
2019-05-03T13:26:58.855Z,2.50
2019-05-03T13:29:26.761Z,2.53
2019-05-03T13:32:01.564Z,2.57
2019-05-03T13:34:24.807Z,2.00
2019-05-03T13:36:54.834Z,3.27
2019-05-03T13:39:26.142Z,3.40
2019-05-03T13:41:52.402Z,3.00
2019-05-03T13:44:20.329Z,2.57
2019-05-03T13:46:48.186Z,2.70
2019-05-03T13:49:16.179Z,2.73
2019-05-03T13:51:45.169Z,2.93
2019-05-03T13:54:14.920Z,2.80
2019-05-03T13:56:42.910Z,2.27
2019-05-03T13:59:18.893Z,2.27
2019-05-03T14:01:40.605Z,2.00
2019-05-03T14:04:08.559Z,2.60
2019-05-03T14:06:36.707Z,2.83
2019-05-03T14:09:06.504Z,2.47
2019-05-03T14:11:35.335Z,2.67
2019-05-03T14:14:22.976Z,2.50
2019-05-03T14:16:50.917Z,2.80
2019-05-03T14:19:26.105Z,2.67
2019-05-03T14:21:55.619Z,3.83
2019-05-03T14:24:24.553Z,4.97
2019-05-03T14:26:52.615Z,4.27
2019-05-03T14:29:20.697Z,3.37
2019-05-03T14:31:48.668Z,3.13
2019-05-03T14:34:17.568Z,3.10
2019-05-03T14:36:45.873Z,3.03
2019-05-03T14:39:15.044Z,2.40
2019-05-03T14:41:46.520Z,2.40
2019-05-03T14:44:15.553Z,3.00
2019-05-03T14:46:43.123Z,2.40
2019-05-03T14:49:11.224Z,2.30
2019-05-03T14:51:39.206Z,2.23
2019-05-03T14:54:07.849Z,2.67
2019-05-03T14:56:45.581Z,2.60
2019-05-03T14:59:31.473Z,2.57
2019-05-03T15:02:15.566Z,2.40
2019-05-03T15:04:43.575Z,2.47
2019-05-03T15:07:11.475Z,2.50
2019-05-03T15:09:39.428Z,2.50
2019-05-03T15:12:07.458Z,2.47
2019-05-03T15:15:01.858Z,2.50
2019-05-03T15:17:29.413Z,2.40
2019-05-03T15:19:57.460Z,3.10
2019-05-03T15:22:25.469Z,2.60
2019-05-03T15:24:54.592Z,2.50
2019-05-03T15:27:24.674Z,2.57
2019-05-03T15:29:52.438Z,2.90
2019-05-03T15:32:20.424Z,2.47
2019-05-03T15:34:48.494Z,3.07
2019-05-03T15:37:16.613Z,2.77
2019-05-03T15:39:45.146Z,3.03
2019-05-03T15:42:14.611Z,3.37
2019-05-03T15:45:17.184Z,3.23
2019-05-03T15:48:04.366Z,2.90
2019-05-03T15:50:32.434Z,2.83
2019-05-03T15:53:00.351Z,2.73
2019-05-03T15:55:28.720Z,2.87
2019-05-03T15:57:57.122Z,2.90
2019-05-03T16:00:25.197Z,2.67
2019-05-03T16:02:54.684Z,3.07
2019-05-03T16:05:24.928Z,3.33
2019-05-03T16:07:52.886Z,2.37
2019-05-03T16:10:20.845Z,2.27
2019-05-03T16:12:49.372Z,2.20
2019-05-03T16:15:55.150Z,1.97
2019-05-03T16:18:20.600Z,2.10
2019-05-03T16:20:48.582Z,2.20
2019-05-03T16:23:16.631Z,1.90
2019-05-03T16:25:44.904Z,1.77
2019-05-03T16:28:21.887Z,2.10
2019-05-03T16:30:58.152Z,1.90
2019-05-03T16:33:27.946Z,2.20
2019-05-03T16:35:55.914Z,2.07
2019-05-03T16:38:24.911Z,2.83
2019-05-03T16:40:54.536Z,2.93
2019-05-03T16:43:22.647Z,4.00
2019-05-03T16:45:50.603Z,3.07
2019-05-03T16:48:18.610Z,2.23
2019-05-03T16:50:46.579Z,2.00
2019-05-03T16:53:14.849Z,2.50
2019-05-03T16:55:44.368Z,2.60
2019-05-03T16:58:12.365Z,2.67
2019-05-03T17:00:40.297Z,3.30
2019-05-03T17:03:08.372Z,2.80
2019-05-03T17:05:55.785Z,3.07
2019-05-03T17:08:45.980Z,3.07
2019-05-03T17:11:15.976Z,3.80
2019-05-03T17:13:46.213Z,2.97
2019-05-03T17:16:40.660Z,2.70
2019-05-03T17:19:08.832Z,2.80
2019-05-03T17:21:36.827Z,2.77
2019-05-03T17:24:06.313Z,2.63
2019-05-03T17:26:35.164Z,2.87
2019-05-03T17:29:04.678Z,3.17
2019-05-03T17:31:32.693Z,3.30
2019-05-03T17:34:00.732Z,3.13
2019-05-03T17:36:28.676Z,3.30
2019-05-03T17:39:01.311Z,3.27
2019-05-03T17:41:40.709Z,3.60
2019-05-03T17:44:14.429Z,3.03
2019-05-03T17:46:42.607Z,3.07
2019-05-03T17:49:10.585Z,3.20
2019-05-03T17:51:56.569Z,2.97
2019-05-03T17:54:54.207Z,2.93
2019-05-03T17:57:26.618Z,3.00
2019-05-03T18:00:05.944Z,4.00
2019-05-03T18:02:40.361Z,4.03
2019-05-03T18:05:27.794Z,4.63
2019-05-03T18:08:15.256Z,6.00
2019-05-03T18:10:49.446Z,5.43
2019-05-03T18:13:17.500Z,9.70
2019-05-03T18:16:35.255Z,13.17
2019-05-03T18:19:01.073Z,15.20
2019-05-03T18:21:28.938Z,16.80
2019-05-03T18:23:56.909Z,15.10
2019-05-03T18:26:25.051Z,16.50
2019-05-03T18:28:53.049Z,16.93
2019-05-03T18:31:21.139Z,18.37
2019-05-03T18:33:49.125Z,23.33
2019-05-03T18:36:17.019Z,29.57
2019-05-03T18:38:44.940Z,26.47
2019-05-03T18:41:13.444Z,27.43
2019-05-03T18:44:02.306Z,24.40
2019-05-03T18:46:46.660Z,24.83
2019-05-03T18:49:14.670Z,22.40
2019-05-03T18:51:44.627Z,19.73
2019-05-03T18:54:12.569Z,15.27
2019-05-03T18:56:40.517Z,11.87
2019-05-03T18:59:08.349Z,14.97
2019-05-03T19:01:36.494Z,12.27
2019-05-03T19:04:15.202Z,8.53
2019-05-03T19:06:44.806Z,7.40
2019-05-03T19:09:21.766Z,8.10
2019-05-03T19:12:17.853Z,7.37
2019-05-03T19:15:16.352Z,11.10
2019-05-03T19:17:57.172Z,13.20
2019-05-03T19:20:25.607Z,10.20
2019-05-03T19:22:54.424Z,8.10
2019-05-03T19:25:22.567Z,8.40
2019-05-03T19:27:50.593Z,7.33
2019-05-03T19:30:18.863Z,8.67
2019-05-03T19:32:46.737Z,11.30
2019-05-03T19:35:16.003Z,8.40
2019-05-03T19:37:46.367Z,6.03
2019-05-03T19:40:14.281Z,6.83
2019-05-03T19:42:42.141Z,6.90
2019-05-03T19:45:10.037Z,5.20
2019-05-03T19:47:38.016Z,6.20
2019-05-03T19:50:06.557Z,6.60
2019-05-03T19:52:38.931Z,7.17
2019-05-03T19:55:06.978Z,7.17
2019-05-03T19:57:38.540Z,7.60
2019-05-03T20:00:07.836Z,6.77
2019-05-03T20:02:45.493Z,5.80
2019-05-03T20:05:25.246Z,5.87
2019-05-03T20:08:09.663Z,7.40
2019-05-03T20:10:37.580Z,6.70
2019-05-03T20:13:05.657Z,6.57
2019-05-03T20:16:16.017Z,5.23
2019-05-03T20:18:42.150Z,4.40
2019-05-03T20:21:09.989Z,4.63
2019-05-03T20:23:38.025Z,4.40
2019-05-03T20:26:39.417Z,4.47
2019-05-03T20:29:06.340Z,4.33
2019-05-03T20:31:35.347Z,5.60
2019-05-03T20:34:05.386Z,5.37
2019-05-03T20:36:35.064Z,5.40
2019-05-03T20:39:05.424Z,5.47
2019-05-03T20:41:35.005Z,5.57
2019-05-03T20:44:24.728Z,6.57
2019-05-03T20:47:17.621Z,4.87
2019-05-03T20:50:05.009Z,4.23
2019-05-03T20:52:35.134Z,6.43
2019-05-03T20:55:04.736Z,7.30
2019-05-03T20:57:32.608Z,7.70
2019-05-03T21:00:00.829Z,6.93
2019-05-03T21:02:28.658Z,6.50
2019-05-03T21:04:56.710Z,5.17
2019-05-03T21:07:24.577Z,4.47
2019-05-03T21:09:54.642Z,3.80
2019-05-03T21:12:22.304Z,4.10
2019-05-03T21:15:26.347Z,4.37
2019-05-03T21:18:09.856Z,4.63
2019-05-03T21:20:57.316Z,5.10
2019-05-03T21:23:26.145Z,5.10
2019-05-03T21:26:11.366Z,4.47
2019-05-03T21:28:31.297Z,5.63
2019-05-03T21:30:59.590Z,5.07
2019-05-03T21:33:27.548Z,4.17
2019-05-03T21:35:55.764Z,3.73
2019-05-03T21:38:24.623Z,2.90
2019-05-03T21:40:54.549Z,3.00
2019-05-03T21:43:22.568Z,4.10
2019-05-03T21:45:56.023Z,3.33
2019-05-03T21:48:35.199Z,3.67
2019-05-03T21:51:06.616Z,3.40
2019-05-03T21:53:34.649Z,3.20
2019-05-03T21:56:02.433Z,3.00
2019-05-03T21:58:30.483Z,2.50
2019-05-03T22:01:02.483Z,2.97
2019-05-03T22:03:30.405Z,3.10
2019-05-03T22:05:58.730Z,3.47
2019-05-03T22:08:28.601Z,3.77
2019-05-03T22:11:39.202Z,3.80
2019-05-03T22:14:50.076Z,2.70
2019-05-03T22:17:45.210Z,2.40
2019-05-03T22:20:35.009Z,3.23
2019-05-03T22:23:31.174Z,3.13
2019-05-03T22:25:59.672Z,2.93
2019-05-03T22:28:27.895Z,3.00
2019-05-03T22:30:56.075Z,3.10
2019-05-03T22:33:24.190Z,3.30
2019-05-03T22:36:07.958Z,2.70
2019-05-03T22:38:24.315Z,2.57
2019-05-03T22:40:55.185Z,2.40
2019-05-03T22:43:22.513Z,2.83
2019-05-03T22:45:58.985Z,3.57
2019-05-03T22:48:26.955Z,4.53
2019-05-03T22:50:55.554Z,5.83
2019-05-03T22:53:26.746Z,7.03
2019-05-03T22:55:54.829Z,6.40
2019-05-03T22:58:24.734Z,6.00
2019-05-03T23:00:52.545Z,4.80
2019-05-03T23:03:20.486Z,3.70
2019-05-03T23:05:48.346Z,3.43
2019-05-03T23:08:16.353Z,4.53
2019-05-03T23:10:45.143Z,4.10
2019-05-03T23:13:13.112Z,3.47
2019-05-03T23:15:41.093Z,2.50
2019-05-03T23:18:09.039Z,2.03
2019-05-03T23:20:50.228Z,1.63
2019-05-03T23:23:36.162Z,2.20
2019-05-03T23:26:04.508Z,2.53
2019-05-03T23:28:32.637Z,2.50
2019-05-03T23:31:00.885Z,2.53
2019-05-03T23:33:28.873Z,2.30
2019-05-03T23:35:56.982Z,2.60
2019-05-03T23:38:25.290Z,2.50
2019-05-03T23:40:54.915Z,2.53
2019-05-03T23:43:25.025Z,2.43
2019-05-03T23:45:54.448Z,2.47
2019-05-03T23:48:22.452Z,2.60
2019-05-03T23:50:50.375Z,2.10
2019-05-03T23:53:18.337Z,2.33
2019-05-03T23:55:50.106Z,2.80
2019-05-03T23:58:18.102Z,2.70
